Time;durP1;ratioP1;P1;durP2;ratioP2;P2;SDS_P1;SDS_P2;PMS_P1;PMS_P2;Temp;Humidity;BMP_temperature;BMP_pressure;BME280_temperature;BME280_humidity;BME280_pressure;Samples;Min_cycle;Max_cycle;Signal;HPM_P1;HPM_P2
2023/04/02 00:02:20;;;;;;;12.77;11.47;;;;;;;;;;5018863;28;20231;-79
2023/04/02 00:05:06;;;;;;;12.33;10.97;;;;;;;;;;5030200;28;20208;-78
2023/04/02 00:07:32;;;;;;;13.23;11.20;;;;;;;;;;5027890;28;20235;-79
2023/04/02 00:09:59;;;;;;;12.03;10.87;;;;;;;;;;5013597;28;20208;-79
2023/04/02 00:12:25;;;;;;;11.40;10.20;;;;;;;;;;5013398;28;20240;-79
2023/04/02 00:14:56;;;;;;;10.93;9.93;;;;;;;;;;5012341;28;20196;-80
2023/04/02 00:17:24;;;;;;;10.47;9.57;;;;;;;;;;5018374;28;20184;-80
2023/04/02 00:20:05;;;;;;;10.00;9.10;;;;;;;;;;5048119;28;20173;-80
2023/04/02 00:22:32;;;;;;;10.63;9.50;;;;;;;;;;5027907;28;20172;-80
2023/04/02 00:25:00;;;;;;;10.40;9.40;;;;;;;;;;5032259;28;20188;-80
2023/04/02 00:27:26;;;;;;;10.10;8.90;;;;;;;;;;5041816;28;20212;-80
2023/04/02 00:29:54;;;;;;;10.43;8.83;;;;;;;;;;5018974;28;20207;-80
2023/04/02 00:32:24;;;;;;;9.60;8.60;;;;;;;;;;5036713;28;20180;-80
2023/04/02 00:34:50;;;;;;;9.03;8.23;;;;;;;;;;5038275;28;20180;-80
2023/04/02 00:37:26;;;;;;;9.70;8.73;;;;;;;;;;5032643;28;20184;-80
2023/04/02 00:40:06;;;;;;;9.40;8.60;;;;;;;;;;5034407;28;20245;-80
2023/04/02 00:42:33;;;;;;;9.00;8.20;;;;;;;;;;5029067;28;20230;-80
2023/04/02 00:45:00;;;;;;;8.50;7.70;;;;;;;;;;5051574;28;20196;-80
2023/04/02 00:47:31;;;;;;;8.80;7.77;;;;;;;;;;5047266;28;20238;-82
2023/04/02 00:50:17;;;;;;;10.07;8.37;;;;;;;;;;5044956;28;20219;-79
2023/04/02 00:52:45;;;;;;;9.87;8.80;;;;;;;;;;5028385;28;20188;-80
2023/04/02 00:55:21;;;;;;;9.70;8.80;;;;;;;;;;5049059;28;20176;-80
2023/04/02 00:57:49;;;;;;;10.37;9.33;;;;;;;;;;5030164;28;20271;-79
2023/04/02 01:00:18;;;;;;;11.40;10.20;;;;;;;;;;5046417;28;20181;-79
2023/04/02 01:03:04;;;;;;;10.60;9.57;;;;;;;;;;5052126;28;20183;-78
2023/04/02 01:05:34;;;;;;;10.83;9.73;;;;;;;;;;5028635;28;20180;-83
2023/04/02 01:08:15;;;;;;;10.37;9.37;;;;;;;;;;5047599;28;20216;-82
2023/04/02 01:10:52;;;;;;;10.47;9.40;;;;;;;;;;5026703;28;20176;-83
2023/04/02 01:13:27;;;;;;;11.30;10.20;;;;;;;;;;5055395;28;20233;-82
2023/04/02 01:16:04;;;;;;;10.20;9.10;;;;;;;;;;5031069;28;20238;-83
2023/04/02 01:18:50;;;;;;;9.97;9.07;;;;;;;;;;5029677;28;20176;-79
2023/04/02 01:21:29;;;;;;;10.33;9.10;;;;;;;;;;5049435;28;20184;-83
2023/04/02 01:23:58;;;;;;;10.60;9.60;;;;;;;;;;5034399;28;20214;-83
2023/04/02 01:26:24;;;;;;;10.10;9.17;;;;;;;;;;5053058;28;20212;-83
2023/04/02 01:28:50;;;;;;;9.80;8.80;;;;;;;;;;5031836;28;20187;-83
2023/04/02 01:31:17;;;;;;;9.57;8.70;;;;;;;;;;5044805;28;20191;-83
2023/04/02 01:33:43;;;;;;;9.03;8.23;;;;;;;;;;5017595;28;20180;-83
2023/04/02 01:36:19;;;;;;;9.70;8.70;;;;;;;;;;5035525;28;20199;-83
2023/04/02 01:38:54;;;;;;;9.77;8.80;;;;;;;;;;5052073;28;20176;-80
2023/04/02 01:41:27;;;;;;;10.00;9.10;;;;;;;;;;5054617;28;20195;-80
2023/04/02 01:43:57;;;;;;;10.13;8.93;;;;;;;;;;5020851;28;20184;-80
2023/04/02 01:46:28;;;;;;;10.67;9.57;;;;;;;;;;5035670;28;20230;-80
2023/04/02 01:48:55;;;;;;;12.67;10.47;;;;;;;;;;5036124;28;20266;-80
2023/04/02 01:51:26;;;;;;;10.63;9.53;;;;;;;;;;5016049;28;20290;-80
2023/04/02 01:53:53;;;;;;;10.97;9.47;;;;;;;;;;5051149;28;20176;-80
2023/04/02 01:56:20;;;;;;;11.07;9.97;;;;;;;;;;5016818;28;20200;-80
2023/04/02 01:58:48;;;;;;;10.23;9.23;;;;;;;;;;5034719;28;20219;-80
2023/04/02 02:01:16;;;;;;;10.97;9.87;;;;;;;;;;5035288;28;20214;-80
2023/04/02 02:03:43;;;;;;;10.77;9.67;;;;;;;;;;5035761;28;20220;-80
2023/04/02 02:06:13;;;;;;;11.40;10.10;;;;;;;;;;5019847;28;20306;-80
2023/04/02 02:08:39;;;;;;;10.73;9.67;;;;;;;;;;5030409;28;20293;-80
2023/04/02 02:11:05;;;;;;;11.10;9.90;;;;;;;;;;5036886;28;20184;-80
2023/04/02 02:13:32;;;;;;;11.73;10.53;;;;;;;;;;5035172;28;20233;-81
2023/04/02 02:15:58;;;;;;;11.77;10.63;;;;;;;;;;5016388;28;20185;-80
2023/04/02 02:18:26;;;;;;;11.27;10.17;;;;;;;;;;5046285;28;20221;-80
2023/04/02 02:20:52;;;;;;;12.10;10.87;;;;;;;;;;5019839;28;20195;-80
2023/04/02 02:23:19;;;;;;;11.47;10.13;;;;;;;;;;5035310;28;20242;-80
2023/04/02 02:25:46;;;;;;;11.20;9.73;;;;;;;;;;5052064;28;20299;-80
2023/04/02 02:28:12;;;;;;;11.00;10.00;;;;;;;;;;5043160;28;20184;-80
2023/04/02 02:30:44;;;;;;;11.07;9.93;;;;;;;;;;5035666;28;20187;-80
2023/04/02 02:33:14;;;;;;;14.07;11.57;;;;;;;;;;5033793;28;20191;-80
2023/04/02 02:35:54;;;;;;;12.40;11.10;;;;;;;;;;5035744;28;20244;-80
2023/04/02 02:38:30;;;;;;;12.90;11.60;;;;;;;;;;5034856;28;20275;-80
2023/04/02 02:41:05;;;;;;;13.87;12.43;;;;;;;;;;5016331;28;20233;-80
2023/04/02 02:43:32;;;;;;;13.57;12.20;;;;;;;;;;5025088;28;20202;-80
2023/04/02 02:45:59;;;;;;;14.97;13.47;;;;;;;;;;5029208;28;20253;-80
2023/04/02 02:48:28;;;;;;;14.50;13.10;;;;;;;;;;5034878;28;20184;-78
2023/04/02 02:50:55;;;;;;;12.90;10.80;;;;;;;;;;5052142;28;20207;-78
2023/04/02 02:53:22;;;;;;;14.10;12.03;;;;;;;;;;5033711;28;20203;-78
2023/04/02 02:55:50;;;;;;;13.80;11.67;;;;;;;;;;5035316;28;20190;-78
2023/04/02 02:58:25;;;;;;;13.00;11.27;;;;;;;;;;5034624;28;20184;-78
2023/04/02 03:00:51;;;;;;;13.13;10.87;;;;;;;;;;5035250;28;20337;-78
2023/04/02 03:03:20;;;;;;;13.20;11.77;;;;;;;;;;5017856;28;20226;-78
2023/04/02 03:05:50;;;;;;;11.70;10.43;;;;;;;;;;5035509;28;20271;-79
2023/04/02 03:08:21;;;;;;;9.37;8.33;;;;;;;;;;5035350;28;20246;-78
2023/04/02 03:11:00;;;;;;;10.53;6.57;;;;;;;;;;5035151;28;20184;-78
2023/04/02 03:13:34;;;;;;;7.07;6.37;;;;;;;;;;5024680;28;20183;-78
2023/04/02 03:16:03;;;;;;;8.23;7.30;;;;;;;;;;5052658;28;20190;-79
2023/04/02 03:18:41;;;;;;;7.53;6.83;;;;;;;;;;5052125;28;20207;-80
2023/04/02 03:21:14;;;;;;;7.70;6.93;;;;;;;;;;5023849;28;20184;-80
2023/04/02 03:24:07;;;;;;;7.60;6.90;;;;;;;;;;5038078;28;20192;-80
2023/04/02 03:26:41;;;;;;;10.10;7.20;;;;;;;;;;5016587;28;20333;-80
2023/04/02 03:29:19;;;;;;;7.60;6.90;;;;;;;;;;5036469;28;20207;-80
2023/04/02 03:31:47;;;;;;;8.03;7.10;;;;;;;;;;5037512;28;20192;-79
2023/04/02 03:34:17;;;;;;;9.20;7.40;;;;;;;;;;5037720;28;20180;-83
2023/04/02 03:36:56;;;;;;;9.03;7.43;;;;;;;;;;5039852;28;20184;-82
2023/04/02 03:39:22;;;;;;;8.80;7.90;;;;;;;;;;5056767;28;20195;-83
2023/04/02 03:41:54;;;;;;;8.30;7.50;;;;;;;;;;5056805;28;20199;-82
2023/04/02 03:44:23;;;;;;;8.07;7.27;;;;;;;;;;5037101;28;20192;-82
2023/04/02 03:47:02;;;;;;;9.50;8.50;;;;;;;;;;5019470;28;20231;-78
2023/04/02 03:49:31;;;;;;;9.20;8.17;;;;;;;;;;5048429;28;20189;-78
2023/04/02 03:52:10;;;;;;;9.60;8.60;;;;;;;;;;5019155;28;20180;-79
2023/04/02 03:54:37;;;;;;;11.50;10.33;;;;;;;;;;5038333;28;20183;-80
2023/04/02 03:57:03;;;;;;;12.73;11.30;;;;;;;;;;5056081;28;20175;-80
2023/04/02 03:59:48;;;;;;;12.00;10.90;;;;;;;;;;5009461;28;20210;-79
2023/04/02 04:02:33;;;;;;;12.23;10.47;;;;;;;;;;5029098;28;20188;-80
2023/04/02 04:05:00;;;;;;;13.37;11.00;;;;;;;;;;5038514;28;20183;-79
2023/04/02 04:07:31;;;;;;;12.13;10.90;;;;;;;;;;5040760;28;20219;-78
2023/04/02 04:09:58;;;;;;;14.27;11.40;;;;;;;;;;5039039;28;20326;-78
2023/04/02 04:12:24;;;;;;;11.53;10.43;;;;;;;;;;5038358;28;20183;-79
2023/04/02 04:14:54;;;;;;;11.20;9.27;;;;;;;;;;5038644;28;20208;-80
2023/04/02 04:17:39;;;;;;;11.37;9.67;;;;;;;;;;5055883;28;20187;-80
2023/04/02 04:20:11;;;;;;;10.73;9.67;;;;;;;;;;5034652;28;20260;-80
2023/04/02 04:22:37;;;;;;;10.47;9.37;;;;;;;;;;5054577;28;20188;-79
2023/04/02 04:25:17;;;;;;;10.60;9.10;;;;;;;;;;5021725;28;20196;-80
2023/04/02 04:28:04;;;;;;;11.00;8.80;;;;;;;;;;5032671;28;20216;-80
2023/04/02 04:30:40;;;;;;;10.37;9.30;;;;;;;;;;5056058;28;20175;-80
2023/04/02 04:33:14;;;;;;;10.87;8.67;;;;;;;;;;5038312;28;20183;-80
2023/04/02 04:35:51;;;;;;;11.17;8.27;;;;;;;;;;5038098;28;20207;-79
2023/04/02 04:38:31;;;;;;;10.53;8.47;;;;;;;;;;5037470;28;20191;-79
2023/04/02 04:41:00;;;;;;;10.93;7.90;;;;;;;;;;5024872;28;20212;-83
2023/04/02 04:43:30;;;;;;;12.07;8.30;;;;;;;;;;5030527;28;20275;-83
2023/04/02 04:46:00;;;;;;;10.00;7.20;;;;;;;;;;5022253;28;20204;-83
2023/04/02 04:48:52;;;;;;;11.37;7.03;;;;;;;;;;5023635;28;20245;-82
2023/04/02 04:51:21;;;;;;;11.00;6.67;;;;;;;;;;5014768;28;20192;-82
2023/04/02 04:53:48;;;;;;;10.20;6.93;;;;;;;;;;5038071;28;20184;-82
2023/04/02 04:56:16;;;;;;;9.27;5.70;;;;;;;;;;5052515;28;20180;-80
2023/04/02 04:58:48;;;;;;;7.57;5.63;;;;;;;;;;5018667;28;20192;-82
2023/04/02 05:01:27;;;;;;;9.60;5.53;;;;;;;;;;5036876;28;20210;-82
2023/04/02 05:04:02;;;;;;;7.07;5.00;;;;;;;;;;5022198;28;20188;-82
2023/04/02 05:06:40;;;;;;;8.27;5.40;;;;;;;;;;5028541;28;20203;-82
2023/04/02 05:09:19;;;;;;;6.67;5.27;;;;;;;;;;5037137;28;20226;-82
2023/04/02 05:11:47;;;;;;;11.33;5.20;;;;;;;;;;5036429;28;20223;-79
2023/04/02 05:14:30;;;;;;;9.40;5.57;;;;;;;;;;5037412;28;20187;-80
2023/04/02 05:17:00;;;;;;;5.87;5.00;;;;;;;;;;5025169;28;20246;-79
2023/04/02 05:19:32;;;;;;;7.17;4.83;;;;;;;;;;5036606;28;20192;-79
2023/04/02 05:22:06;;;;;;;8.10;5.10;;;;;;;;;;5037134;28;20195;-79
2023/04/02 05:24:41;;;;;;;7.23;4.17;;;;;;;;;;5034912;28;20188;-79
2023/04/02 05:27:29;;;;;;;5.90;4.90;;;;;;;;;;5052166;28;20230;-79
2023/04/02 05:30:09;;;;;;;5.43;4.33;;;;;;;;;;5040759;28;20187;-79
2023/04/02 05:32:36;;;;;;;7.33;4.33;;;;;;;;;;5043130;28;20186;-82
2023/04/02 05:35:05;;;;;;;7.43;4.37;;;;;;;;;;5036543;28;20190;-83
2023/04/02 05:37:31;;;;;;;5.70;4.20;;;;;;;;;;5024202;28;20192;-82
2023/04/02 05:40:12;;;;;;;9.13;4.10;;;;;;;;;;5014519;28;20192;-82
2023/04/02 05:42:39;;;;;;;6.13;4.03;;;;;;;;;;5040622;28;20199;-83
2023/04/02 05:45:24;;;;;;;7.30;3.77;;;;;;;;;;5052605;28;20211;-83
2023/04/02 05:47:52;;;;;;;6.93;4.00;;;;;;;;;;5027097;28;20211;-80
2023/04/02 05:50:25;;;;;;;4.30;3.40;;;;;;;;;;5035909;28;20186;-80
2023/04/02 05:52:56;;;;;;;7.40;3.67;;;;;;;;;;5052721;28;20253;-80
2023/04/02 05:55:42;;;;;;;5.73;4.00;;;;;;;;;;5054054;28;20204;-80
2023/04/02 05:58:35;;;;;;;5.63;3.63;;;;;;;;;;5052334;28;20187;-80
2023/04/02 06:01:10;;;;;;;7.37;3.70;;;;;;;;;;5037434;28;20235;-80
2023/04/02 06:03:44;;;;;;;8.23;3.70;;;;;;;;;;5031947;28;20180;-79
2023/04/02 06:06:17;;;;;;;8.80;3.13;;;;;;;;;;5042751;28;20208;-80
2023/04/02 06:08:48;;;;;;;6.50;3.40;;;;;;;;;;5035425;28;20235;-80
2023/04/02 06:11:18;;;;;;;8.53;3.23;;;;;;;;;;5035887;28;20199;-80
2023/04/02 06:13:48;;;;;;;6.03;3.17;;;;;;;;;;5035366;28;20310;-79
2023/04/02 06:16:15;;;;;;;5.80;3.10;;;;;;;;;;5035146;28;20188;-80
2023/04/02 06:18:42;;;;;;;4.57;2.87;;;;;;;;;;5034427;28;20192;-80
2023/04/02 06:21:11;;;;;;;5.23;3.00;;;;;;;;;;5036053;28;20191;-80
2023/04/02 06:23:40;;;;;;;5.23;3.20;;;;;;;;;;5036047;28;20188;-80
2023/04/02 06:26:14;;;;;;;7.97;2.90;;;;;;;;;;5034950;28;20298;-80
2023/04/02 06:28:45;;;;;;;4.13;2.93;;;;;;;;;;5036487;28;20180;-80
2023/04/02 06:31:13;;;;;;;6.30;3.10;;;;;;;;;;5053778;28;20168;-80
2023/04/02 06:33:40;;;;;;;4.50;2.80;;;;;;;;;;5049194;28;20271;-80
2023/04/02 06:36:06;;;;;;;5.70;2.90;;;;;;;;;;5052380;28;20198;-80
2023/04/02 06:38:33;;;;;;;5.73;2.80;;;;;;;;;;5019412;28;20560;-80
2023/04/02 06:41:00;;;;;;;4.13;3.00;;;;;;;;;;5053380;28;20218;-80
2023/04/02 06:43:32;;;;;;;5.53;3.00;;;;;;;;;;5053376;28;20203;-80
2023/04/02 06:46:01;;;;;;;3.83;2.47;;;;;;;;;;5030646;28;20214;-80
2023/04/02 06:48:27;;;;;;;5.70;2.80;;;;;;;;;;5048999;28;20182;-80
2023/04/02 06:50:55;;;;;;;4.20;3.10;;;;;;;;;;5019104;28;20184;-80
2023/04/02 06:53:41;;;;;;;6.27;3.23;;;;;;;;;;5039744;28;20176;-80
2023/04/02 06:56:16;;;;;;;5.60;2.83;;;;;;;;;;5028268;28;20275;-78
2023/04/02 06:58:42;;;;;;;5.37;3.03;;;;;;;;;;5047185;28;20186;-78
2023/04/02 07:01:11;;;;;;;3.97;2.50;;;;;;;;;;5015210;28;20199;-78
2023/04/02 07:03:39;;;;;;;3.47;2.50;;;;;;;;;;5047089;28;20239;-78
2023/04/02 07:06:05;;;;;;;4.40;2.90;;;;;;;;;;5045908;28;20200;-78
2023/04/02 07:08:31;;;;;;;5.13;2.67;;;;;;;;;;5049821;28;20250;-78
2023/04/02 07:10:57;;;;;;;6.83;3.13;;;;;;;;;;5030438;28;20227;-78
2023/04/02 07:13:24;;;;;;;4.53;2.80;;;;;;;;;;5049145;28;20185;-78
2023/04/02 07:15:51;;;;;;;5.90;2.93;;;;;;;;;;5048320;28;20172;-78
2023/04/02 07:18:28;;;;;;;4.93;2.87;;;;;;;;;;5050507;28;20180;-78
2023/04/02 07:20:55;;;;;;;5.57;3.20;;;;;;;;;;5035683;28;20262;-78
2023/04/02 07:23:21;;;;;;;5.63;3.07;;;;;;;;;;5017573;28;20186;-78
2023/04/02 07:25:52;;;;;;;6.47;3.67;;;;;;;;;;5032833;28;20187;-79
2023/04/02 07:28:18;;;;;;;7.53;3.80;;;;;;;;;;5049367;28;20168;-79
2023/04/02 07:30:45;;;;;;;7.77;3.30;;;;;;;;;;5035022;28;20184;-79
2023/04/02 07:33:15;;;;;;;6.77;3.70;;;;;;;;;;5050215;28;20188;-80
2023/04/02 07:35:41;;;;;;;5.60;3.70;;;;;;;;;;5034667;28;20186;-80
2023/04/02 07:38:07;;;;;;;6.10;3.70;;;;;;;;;;5018719;28;20184;-80
2023/04/02 07:40:33;;;;;;;7.83;3.43;;;;;;;;;;5022970;28;20265;-79
2023/04/02 07:42:59;;;;;;;6.03;3.43;;;;;;;;;;5039477;28;20214;-80
2023/04/02 07:45:25;;;;;;;6.70;3.17;;;;;;;;;;5047686;28;20210;-80
2023/04/02 07:47:51;;;;;;;7.13;3.30;;;;;;;;;;5047083;28;20204;-80
2023/04/02 07:50:18;;;;;;;5.33;2.97;;;;;;;;;;5012893;28;20200;-80
2023/04/02 07:52:44;;;;;;;5.23;2.77;;;;;;;;;;5014705;28;20177;-80
2023/04/02 07:55:11;;;;;;;6.47;3.47;;;;;;;;;;5045885;28;20179;-81
2023/04/02 07:57:48;;;;;;;4.93;2.97;;;;;;;;;;5048068;28;20177;-80
2023/04/02 08:00:14;;;;;;;5.97;3.20;;;;;;;;;;5048179;28;20192;-79
2023/04/02 08:02:41;;;;;;;5.47;3.50;;;;;;;;;;5044888;28;20176;-80
2023/04/02 08:05:08;;;;;;;6.20;3.07;;;;;;;;;;5039149;28;20214;-80
2023/04/02 08:07:34;;;;;;;5.97;3.40;;;;;;;;;;5031026;28;20237;-80
2023/04/02 08:10:00;;;;;;;6.60;3.10;;;;;;;;;;5012613;28;20232;-79
2023/04/02 08:12:26;;;;;;;4.70;3.37;;;;;;;;;;5038083;28;20181;-79
2023/04/02 08:14:52;;;;;;;5.47;3.10;;;;;;;;;;5038800;28;20187;-79
2023/04/02 08:17:18;;;;;;;7.40;3.63;;;;;;;;;;5019226;28;20219;-83
2023/04/02 08:19:44;;;;;;;6.80;3.20;;;;;;;;;;5030648;28;20177;-83
2023/04/02 08:22:11;;;;;;;4.63;3.00;;;;;;;;;;5038243;28;20192;-83
2023/04/02 08:24:37;;;;;;;6.03;3.63;;;;;;;;;;5038698;28;20412;-83
2023/04/02 08:27:03;;;;;;;10.93;3.27;;;;;;;;;;5016024;28;20216;-83
2023/04/02 08:29:31;;;;;;;10.53;3.20;;;;;;;;;;5015337;28;20176;-83
2023/04/02 08:32:00;;;;;;;7.23;3.20;;;;;;;;;;5044060;28;20269;-83
2023/04/02 08:34:26;;;;;;;6.83;2.60;;;;;;;;;;5002729;28;20188;-81
2023/04/02 08:36:55;;;;;;;5.13;3.20;;;;;;;;;;5025118;28;20458;-81
2023/04/02 08:39:21;;;;;;;4.70;3.22;;;;;;;;;;5029460;28;20471;-81
2023/04/02 08:41:52;;;;;;;6.35;3.35;;;;;;;;;;5054515;28;20434;-81
2023/04/02 08:44:26;;;;;;;7.03;3.90;;;;;;;;;;5031934;28;20412;-81
2023/04/02 08:46:55;;;;;;;6.32;3.70;;;;;;;;;;5053963;28;20474;-78
2023/04/02 08:49:35;;;;;;;6.00;3.85;;;;;;;;;;5054391;28;20429;-78
2023/04/02 08:52:01;;;;;;;6.53;4.13;;;;;;;;;;5054140;28;20408;-80
2023/04/02 08:54:29;;;;;;;5.75;4.30;;;;;;;;;;5020853;28;20404;-80
2023/04/02 08:57:04;;;;;;;7.87;4.43;;;;;;;;;;5054250;28;20418;-83
2023/04/02 08:59:32;;;;;;;6.45;4.68;;;;;;;;;;5053811;28;20458;-83
2023/04/02 09:02:17;;;;;;;6.88;4.28;;;;;;;;;;5053529;28;20418;-82
2023/04/02 09:04:44;;;;;;;6.70;4.30;;;;;;;;;;5036609;28;20419;-83
2023/04/02 09:07:15;;;;;;;6.78;4.25;;;;;;;;;;5020509;28;20530;-83
2023/04/02 09:09:42;;;;;;;6.67;4.40;;;;;;;;;;5036972;28;20508;-83
2023/04/02 09:12:19;;;;;;;6.90;3.97;;;;;;;;;;5037237;28;20432;-83
2023/04/02 09:14:45;;;;;;;8.85;4.43;;;;;;;;;;5054695;28;20412;-83
2023/04/02 09:17:19;;;;;;;8.18;4.30;;;;;;;;;;5030985;28;20439;-83
2023/04/02 09:19:50;;;;;;;6.73;3.97;;;;;;;;;;5024176;28;20509;-83
2023/04/02 09:22:24;;;;;;;20.63;5.72;;;;;;;;;;5032693;22;20420;-83
2023/04/02 09:24:57;;;;;;;16.63;4.57;;;;;;;;;;5054055;28;20420;-81
2023/04/02 09:27:28;;;;;;;16.58;4.50;;;;;;;;;;5054268;28;20435;-83
2023/04/02 09:29:59;;;;;;;7.23;3.33;;;;;;;;;;5047331;28;20183;-83
2023/04/02 09:32:48;;;;;;;7.00;2.90;;;;;;;;;;5055713;28;20411;-83
2023/04/02 09:35:15;;;;;;;10.03;3.27;;;;;;;;;;5037171;28;20418;-82
2023/04/02 09:37:43;;;;;;;5.32;3.08;;;;;;;;;;5029463;28;20420;-82
2023/04/02 09:40:15;;;;;;;6.68;3.20;;;;;;;;;;5035428;28;20474;-82
2023/04/02 09:42:41;;;;;;;5.97;3.30;;;;;;;;;;5036839;28;20198;-82
2023/04/02 09:45:17;;;;;;;6.93;3.37;;;;;;;;;;5036875;28;20194;-82
2023/04/02 09:47:43;;;;;;;7.03;3.40;;;;;;;;;;5036756;28;20211;-89
2023/04/02 09:50:22;;;;;;;6.15;3.38;;;;;;;;;;5053501;28;20423;-90
2023/04/02 09:52:48;;;;;;;4.50;3.10;;;;;;;;;;5037315;28;20176;-82
2023/04/02 09:55:14;;;;;;;5.63;3.50;;;;;;;;;;5053678;28;20176;-82
2023/04/02 09:57:40;;;;;;;5.83;3.40;;;;;;;;;;5053972;28;20187;-82
2023/04/02 10:00:28;;;;;;;4.13;2.70;;;;;;;;;;5054004;28;20447;-82
2023/04/02 10:03:01;;;;;;;4.80;2.80;;;;;;;;;;5036208;28;20428;-82
2023/04/02 10:05:27;;;;;;;4.45;2.47;;;;;;;;;;5054238;28;20408;-82
2023/04/02 10:07:55;;;;;;;3.47;2.20;;;;;;;;;;5037188;28;20475;-82
2023/04/02 10:10:24;;;;;;;4.82;2.50;;;;;;;;;;5035415;28;20443;-82
2023/04/02 10:13:16;;;;;;;3.55;2.50;;;;;;;;;;5035671;28;20404;-82
2023/04/02 10:16:01;;;;;;;5.15;2.42;;;;;;;;;;5033463;28;20454;-90
2023/04/02 10:18:39;;;;;;;6.23;2.50;;;;;;;;;;5036886;28;20438;-90
2023/04/02 10:21:07;;;;;;;4.85;2.50;;;;;;;;;;5036066;28;20415;-89
2023/04/02 10:23:34;;;;;;;3.87;2.10;;;;;;;;;;5036395;28;20230;-90
2023/04/02 10:26:00;;;;;;;5.23;2.03;;;;;;;;;;5020842;28;20187;-90
2023/04/02 10:28:44;;;;;;;4.93;2.13;;;;;;;;;;5036497;28;20407;-90
2023/04/02 10:31:16;;;;;;;2.97;1.90;;;;;;;;;;5053366;28;20184;-82
2023/04/02 10:33:44;;;;;;;3.33;1.90;;;;;;;;;;5035816;28;20222;-81
2023/04/02 10:36:20;;;;;;;3.20;1.87;;;;;;;;;;5036394;28;20171;-81
2023/04/02 10:38:49;;;;;;;6.70;2.33;;;;;;;;;;5053488;28;20418;-81
2023/04/02 10:41:34;;;;;;;5.37;2.20;;;;;;;;;;5052745;28;20282;-82
2023/04/02 10:44:03;;;;;;;3.97;2.47;;;;;;;;;;5035974;28;20200;-82
2023/04/02 10:46:36;;;;;;;3.87;2.00;;;;;;;;;;5036052;28;20204;-81
2023/04/02 10:49:21;;;;;;;5.40;2.20;;;;;;;;;;5036385;28;20184;-83
2023/04/02 10:51:50;;;;;;;5.50;2.03;;;;;;;;;;5036907;28;20176;-83
2023/04/02 10:54:20;;;;;;;4.57;2.20;;;;;;;;;;5027741;28;20195;-83
2023/04/02 10:56:46;;;;;;;5.67;2.00;;;;;;;;;;5034902;28;20210;-84
2023/04/02 10:59:12;;;;;;;4.10;2.03;;;;;;;;;;5048730;28;20202;-84
2023/04/02 11:01:40;;;;;;;3.90;2.30;;;;;;;;;;5044014;28;20270;-83
2023/04/02 11:04:12;;;;;;;4.27;1.90;;;;;;;;;;5033979;28;20188;-91
2023/04/02 11:06:43;;;;;;;4.37;2.20;;;;;;;;;;5035745;28;20211;-91
2023/04/02 11:09:17;;;;;;;3.93;2.20;;;;;;;;;;5035114;28;20246;-91
2023/04/02 11:11:44;;;;;;;3.73;1.93;;;;;;;;;;5035987;28;20172;-88
2023/04/02 11:14:14;;;;;;;5.73;1.93;;;;;;;;;;5017120;28;20203;-88
2023/04/02 11:16:40;;;;;;;3.73;2.20;;;;;;;;;;5025119;28;20185;-88
2023/04/02 11:19:15;;;;;;;4.53;2.00;;;;;;;;;;5045768;28;20199;-88
2023/04/02 11:21:54;;;;;;;5.47;2.03;;;;;;;;;;5016034;28;20187;-79
2023/04/02 11:24:41;;;;;;;3.70;2.40;;;;;;;;;;5049737;28;20243;-79
2023/04/02 11:27:14;;;;;;;4.50;2.10;;;;;;;;;;5033799;28;20250;-79
2023/04/02 11:29:44;;;;;;;3.90;2.20;;;;;;;;;;5035689;28;20187;-81
2023/04/02 11:32:14;;;;;;;4.83;2.30;;;;;;;;;;5034191;28;20242;-79
2023/04/02 11:34:49;;;;;;;4.60;2.20;;;;;;;;;;5041340;28;20229;-81
2023/04/02 11:37:33;;;;;;;4.20;2.07;;;;;;;;;;5051211;28;20175;-88
2023/04/02 11:40:00;;;;;;;3.37;2.10;;;;;;;;;;5035070;28;20270;-88
2023/04/02 11:42:28;;;;;;;2.77;1.80;;;;;;;;;;5018812;28;20191;-88
2023/04/02 11:44:54;;;;;;;3.67;2.10;;;;;;;;;;5036937;28;20172;-88
2023/04/02 11:47:21;;;;;;;7.05;2.30;;;;;;;;;;5022036;28;20526;-88
2023/04/02 11:50:05;;;;;;;6.60;2.40;;;;;;;;;;5039152;28;20246;-88
2023/04/02 11:52:32;;;;;;;5.30;2.10;;;;;;;;;;5039489;28;20176;-89
2023/04/02 11:55:17;;;;;;;6.03;2.47;;;;;;;;;;5039152;28;20176;-81
2023/04/02 11:57:51;;;;;;;2.80;1.90;;;;;;;;;;5055316;28;20184;-81
2023/04/02 12:00:27;;;;;;;4.33;2.23;;;;;;;;;;5036927;28;20188;-81
2023/04/02 12:03:12;;;;;;;4.93;2.20;;;;;;;;;;5036919;28;20210;-80
2023/04/02 12:05:57;;;;;;;3.53;2.00;;;;;;;;;;5044471;28;20252;-81
2023/04/02 12:08:23;;;;;;;4.27;2.13;;;;;;;;;;5037983;28;20214;-81
2023/04/02 12:10:52;;;;;;;3.60;1.97;;;;;;;;;;5056069;28;20183;-81
2023/04/02 12:13:41;;;;;;;3.87;2.17;;;;;;;;;;5034686;28;20190;-81
2023/04/02 12:16:11;;;;;;;3.43;2.17;;;;;;;;;;5018735;28;20169;-81
2023/04/02 12:18:50;;;;;;;5.03;2.30;;;;;;;;;;5036604;28;20173;-81
2023/04/02 12:21:17;;;;;;;5.72;2.20;;;;;;;;;;5030441;28;20408;-81
2023/04/02 12:23:45;;;;;;;4.23;2.07;;;;;;;;;;5037246;28;20251;-81
2023/04/02 12:26:41;;;;;;;5.13;2.20;;;;;;;;;;5038155;28;20215;-81
2023/04/02 12:29:16;;;;;;;4.07;2.00;;;;;;;;;;5006610;28;20238;-79
2023/04/02 12:31:43;;;;;;;2.53;2.00;;;;;;;;;;5018745;28;20176;-79
2023/04/02 12:34:14;;;;;;;4.57;1.83;;;;;;;;;;5026382;28;20242;-79
2023/04/02 12:36:51;;;;;;;5.45;2.50;;;;;;;;;;5037680;28;20412;-79
2023/04/02 12:39:17;;;;;;;4.28;2.25;;;;;;;;;;5055768;28;20416;-79
2023/04/02 12:41:43;;;;;;;4.00;2.17;;;;;;;;;;5038384;28;20202;-80
2023/04/02 12:44:17;;;;;;;2.93;2.00;;;;;;;;;;5038109;28;20172;-89
2023/04/02 12:46:43;;;;;;;2.87;2.10;;;;;;;;;;5038600;28;20215;-89
2023/04/02 12:49:21;;;;;;;5.27;2.20;;;;;;;;;;5038719;28;20211;-89
2023/04/02 12:51:47;;;;;;;3.20;2.10;;;;;;;;;;5038605;28;20226;-88
2023/04/02 12:54:16;;;;;;;4.23;2.20;;;;;;;;;;5022259;28;20180;-87
2023/04/02 12:56:42;;;;;;;5.07;2.10;;;;;;;;;;5038609;28;20278;-88
2023/04/02 12:59:38;;;;;;;3.47;1.80;;;;;;;;;;5038009;28;20191;-89
2023/04/02 13:02:25;;;;;;;3.97;1.90;;;;;;;;;;5025642;28;20192;-81
2023/04/02 13:04:55;;;;;;;2.50;1.73;;;;;;;;;;5037778;28;20179;-81
2023/04/02 13:07:24;;;;;;;7.70;2.53;;;;;;;;;;5055334;28;20212;-81
2023/04/02 13:09:54;;;;;;;3.03;1.70;;;;;;;;;;5037900;28;20267;-81
2023/04/02 13:12:26;;;;;;;5.70;3.10;;;;;;;;;;5037712;28;20210;-81
2023/04/02 13:14:56;;;;;;;3.50;2.20;;;;;;;;;;5054538;28;20238;-81
2023/04/02 13:17:41;;;;;;;4.03;1.97;;;;;;;;;;5053924;28;20309;-88
2023/04/02 13:20:26;;;;;;;4.60;2.20;;;;;;;;;;5037640;28;20263;-86
2023/04/02 13:22:52;;;;;;;6.77;2.30;;;;;;;;;;5037307;28;20184;-87
2023/04/02 13:25:18;;;;;;;3.90;1.73;;;;;;;;;;5037647;28;20248;-88
2023/04/02 13:27:44;;;;;;;5.47;1.90;;;;;;;;;;5021153;28;20239;-88
2023/04/02 13:30:17;;;;;;;2.90;1.90;;;;;;;;;;5037778;28;20258;-87
2023/04/02 13:32:43;;;;;;;4.63;2.10;;;;;;;;;;5037348;28;20194;-87
2023/04/02 13:35:09;;;;;;;2.77;1.97;;;;;;;;;;5037283;28;20180;-79
2023/04/02 13:37:35;;;;;;;4.10;2.00;;;;;;;;;;5037509;28;20186;-79
2023/04/02 13:40:02;;;;;;;2.70;1.80;;;;;;;;;;5021046;28;20176;-78
2023/04/02 13:42:28;;;;;;;3.27;1.97;;;;;;;;;;5018240;28;20193;-78
2023/04/02 13:44:54;;;;;;;4.93;2.13;;;;;;;;;;5017507;28;20196;-78
2023/04/02 13:47:20;;;;;;;5.57;2.10;;;;;;;;;;5017550;28;20235;-78
2023/04/02 13:49:46;;;;;;;2.90;1.97;;;;;;;;;;5017786;28;20264;-78
2023/04/02 13:52:16;;;;;;;4.33;1.90;;;;;;;;;;5034865;28;20215;-78
2023/04/02 13:54:50;;;;;;;4.60;1.90;;;;;;;;;;5034831;28;20172;-78
2023/04/02 13:57:17;;;;;;;4.23;1.93;;;;;;;;;;5030861;28;20186;-78
2023/04/02 13:59:43;;;;;;;3.80;1.90;;;;;;;;;;5036690;28;20180;-78
2023/04/02 14:02:14;;;;;;;2.57;1.60;;;;;;;;;;5053658;28;20184;-79
2023/04/02 14:04:43;;;;;;;4.07;2.17;;;;;;;;;;5036899;28;20180;-79
2023/04/02 14:07:25;;;;;;;4.77;2.20;;;;;;;;;;5036004;28;20210;-80
2023/04/02 14:10:10;;;;;;;3.00;2.10;;;;;;;;;;5037354;28;20180;-80
2023/04/02 14:12:56;;;;;;;3.70;1.90;;;;;;;;;;5053295;28;20175;-81
2023/04/02 14:15:28;;;;;;;3.37;1.90;;;;;;;;;;5039844;28;20180;-80
2023/04/02 14:17:54;;;;;;;4.17;2.10;;;;;;;;;;5036893;28;20180;-88
2023/04/02 14:20:20;;;;;;;3.43;2.00;;;;;;;;;;5053646;28;20184;-88
2023/04/02 14:23:10;;;;;;;3.57;2.00;;;;;;;;;;5053335;28;20176;-88
2023/04/02 14:25:39;;;;;;;4.67;2.10;;;;;;;;;;5028960;28;20202;-88
2023/04/02 14:28:11;;;;;;;4.07;2.00;;;;;;;;;;5036985;28;20298;-88
2023/04/02 14:30:44;;;;;;;4.10;1.87;;;;;;;;;;5019489;28;20262;-88
2023/04/02 14:33:35;;;;;;;3.27;2.10;;;;;;;;;;5036132;28;20192;-88
2023/04/02 14:36:14;;;;;;;5.47;2.00;;;;;;;;;;5035818;28;20269;-90
2023/04/02 14:38:50;;;;;;;4.87;1.90;;;;;;;;;;5036017;28;20190;-90
2023/04/02 14:41:16;;;;;;;6.40;2.00;;;;;;;;;;5053937;28;20172;-81
2023/04/02 14:43:42;;;;;;;3.57;2.10;;;;;;;;;;5035739;28;20176;-81
2023/04/02 14:46:11;;;;;;;4.30;1.97;;;;;;;;;;5053506;28;20241;-81
2023/04/02 14:48:37;;;;;;;3.47;2.07;;;;;;;;;;5033254;28;20187;-84
2023/04/02 14:51:06;;;;;;;2.70;1.80;;;;;;;;;;5052414;28;20186;-84
2023/04/02 14:53:43;;;;;;;4.47;2.07;;;;;;;;;;5036493;28;20215;-84
2023/04/02 14:56:11;;;;;;;5.80;1.90;;;;;;;;;;5052932;28;20180;-83
2023/04/02 14:58:40;;;;;;;3.40;1.80;;;;;;;;;;5035030;28;20176;-90
2023/04/02 15:01:18;;;;;;;3.40;2.10;;;;;;;;;;5033606;28;20210;-90
2023/04/02 15:04:05;;;;;;;8.77;2.17;;;;;;;;;;5033413;28;20175;-89
2023/04/02 15:06:36;;;;;;;2.83;1.90;;;;;;;;;;5034734;28;20199;-90